sensor_id;sensor_type;location;lat;lon;timestamp;P1;durP1;ratioP1;P2;durP2;ratioP2
47790;SDS011;33547;49.044;1.156;2023-03-12T00:01:35;25.05;;;11.10;;
47790;SDS011;33547;49.044;1.156;2023-03-12T00:04:03;26.05;;;14.63;;
47790;SDS011;33547;49.044;1.156;2023-03-12T00:06:28;36.17;;;16.75;;
47790;SDS011;33547;49.044;1.156;2023-03-12T00:08:54;35.20;;;18.23;;
47790;SDS011;33547;49.044;1.156;2023-03-12T00:11:20;34.67;;;15.30;;
47790;SDS011;33547;49.044;1.156;2023-03-12T00:13:52;21.80;;;12.77;;
47790;SDS011;33547;49.044;1.156;2023-03-12T00:16:20;33.35;;;12.38;;
47790;SDS011;33547;49.044;1.156;2023-03-12T00:18:47;31.33;;;12.80;;
47790;SDS011;33547;49.044;1.156;2023-03-12T00:21:14;24.20;;;12.85;;
47790;SDS011;33547;49.044;1.156;2023-03-12T00:23:40;24.85;;;13.75;;
47790;SDS011;33547;49.044;1.156;2023-03-12T00:26:07;25.65;;;11.73;;
47790;SDS011;33547;49.044;1.156;2023-03-12T00:28:35;30.63;;;12.25;;
47790;SDS011;33547;49.044;1.156;2023-03-12T00:31:01;27.27;;;12.27;;
47790;SDS011;33547;49.044;1.156;2023-03-12T00:33:28;26.30;;;12.00;;
47790;SDS011;33547;49.044;1.156;2023-03-12T00:35:54;30.05;;;11.70;;
47790;SDS011;33547;49.044;1.156;2023-03-12T00:38:20;32.95;;;11.45;;
47790;SDS011;33547;49.044;1.156;2023-03-12T00:40:47;39.17;;;11.75;;
47790;SDS011;33547;49.044;1.156;2023-03-12T00:43:13;34.88;;;12.60;;
47790;SDS011;33547;49.044;1.156;2023-03-12T00:45:38;31.67;;;14.25;;
47790;SDS011;33547;49.044;1.156;2023-03-12T00:48:04;32.72;;;16.95;;
47790;SDS011;33547;49.044;1.156;2023-03-12T00:50:30;33.92;;;13.18;;
47790;SDS011;33547;49.044;1.156;2023-03-12T00:52:56;33.70;;;13.38;;
47790;SDS011;33547;49.044;1.156;2023-03-12T00:55:21;33.17;;;12.90;;
47790;SDS011;33547;49.044;1.156;2023-03-12T00:57:47;37.10;;;13.85;;
47790;SDS011;33547;49.044;1.156;2023-03-12T01:00:13;34.13;;;17.80;;
47790;SDS011;33547;49.044;1.156;2023-03-12T01:02:39;43.97;;;19.90;;
47790;SDS011;33547;49.044;1.156;2023-03-12T01:05:06;30.25;;;15.60;;
47790;SDS011;33547;49.044;1.156;2023-03-12T01:07:34;41.63;;;13.75;;
47790;SDS011;33547;49.044;1.156;2023-03-12T01:10:00;42.58;;;14.60;;
47790;SDS011;33547;49.044;1.156;2023-03-12T01:12:26;33.88;;;13.15;;
47790;SDS011;33547;49.044;1.156;2023-03-12T01:14:52;29.15;;;11.68;;
47790;SDS011;33547;49.044;1.156;2023-03-12T01:17:18;36.42;;;12.10;;
47790;SDS011;33547;49.044;1.156;2023-03-12T01:19:43;35.30;;;13.27;;
47790;SDS011;33547;49.044;1.156;2023-03-12T01:22:09;37.10;;;13.00;;
47790;SDS011;33547;49.044;1.156;2023-03-12T01:24:35;34.78;;;11.05;;
47790;SDS011;33547;49.044;1.156;2023-03-12T01:27:00;45.75;;;12.35;;
47790;SDS011;33547;49.044;1.156;2023-03-12T01:29:26;39.15;;;11.00;;
47790;SDS011;33547;49.044;1.156;2023-03-12T01:31:51;43.30;;;11.27;;
47790;SDS011;33547;49.044;1.156;2023-03-12T01:34:17;43.70;;;10.05;;
47790;SDS011;33547;49.044;1.156;2023-03-12T01:36:43;44.08;;;10.02;;
47790;SDS011;33547;49.044;1.156;2023-03-12T01:39:10;44.30;;;10.85;;
47790;SDS011;33547;49.044;1.156;2023-03-12T01:41:35;51.25;;;10.48;;
47790;SDS011;33547;49.044;1.156;2023-03-12T01:44:01;42.33;;;10.23;;
47790;SDS011;33547;49.044;1.156;2023-03-12T01:49:01;50.25;;;10.20;;
47790;SDS011;33547;49.044;1.156;2023-03-12T01:51:39;50.15;;;10.77;;
47790;SDS011;33547;49.044;1.156;2023-03-12T01:56:51;52.30;;;10.10;;
47790;SDS011;33547;49.044;1.156;2023-03-12T01:59:22;52.83;;;11.25;;
47790;SDS011;33547;49.044;1.156;2023-03-12T02:01:51;53.75;;;11.35;;
47790;SDS011;33547;49.044;1.156;2023-03-12T02:04:18;50.92;;;10.43;;
47790;SDS011;33547;49.044;1.156;2023-03-12T02:07:19;46.90;;;9.82;;
47790;SDS011;33547;49.044;1.156;2023-03-12T02:09:44;58.47;;;11.57;;
47790;SDS011;33547;49.044;1.156;2023-03-12T02:12:12;52.97;;;10.35;;
47790;SDS011;33547;49.044;1.156;2023-03-12T02:14:39;56.03;;;11.20;;
47790;SDS011;33547;49.044;1.156;2023-03-12T02:17:05;46.00;;;11.00;;
47790;SDS011;33547;49.044;1.156;2023-03-12T02:22:15;63.42;;;10.93;;
47790;SDS011;33547;49.044;1.156;2023-03-12T02:27:14;41.67;;;8.88;;
47790;SDS011;33547;49.044;1.156;2023-03-12T02:29:42;40.78;;;10.10;;
47790;SDS011;33547;49.044;1.156;2023-03-12T02:32:09;48.90;;;11.23;;
47790;SDS011;33547;49.044;1.156;2023-03-12T02:34:52;54.55;;;10.23;;
47790;SDS011;33547;49.044;1.156;2023-03-12T02:37:18;45.03;;;8.82;;
47790;SDS011;33547;49.044;1.156;2023-03-12T02:39:45;43.97;;;9.90;;
47790;SDS011;33547;49.044;1.156;2023-03-12T02:42:17;42.28;;;10.00;;
47790;SDS011;33547;49.044;1.156;2023-03-12T02:44:44;41.80;;;9.88;;
47790;SDS011;33547;49.044;1.156;2023-03-12T02:47:09;47.72;;;9.90;;
47790;SDS011;33547;49.044;1.156;2023-03-12T02:49:35;36.95;;;8.18;;
47790;SDS011;33547;49.044;1.156;2023-03-12T02:52:01;36.47;;;8.52;;
47790;SDS011;33547;49.044;1.156;2023-03-12T02:54:27;49.17;;;10.20;;
47790;SDS011;33547;49.044;1.156;2023-03-12T02:56:53;46.60;;;9.13;;
47790;SDS011;33547;49.044;1.156;2023-03-12T02:59:19;44.75;;;9.55;;
47790;SDS011;33547;49.044;1.156;2023-03-12T03:01:46;41.17;;;9.38;;
47790;SDS011;33547;49.044;1.156;2023-03-12T03:04:15;43.22;;;9.50;;
47790;SDS011;33547;49.044;1.156;2023-03-12T03:06:41;40.47;;;9.20;;
47790;SDS011;33547;49.044;1.156;2023-03-12T03:09:08;46.92;;;9.48;;
47790;SDS011;33547;49.044;1.156;2023-03-12T03:11:34;45.55;;;9.57;;
47790;SDS011;33547;49.044;1.156;2023-03-12T03:14:00;48.38;;;10.07;;
47790;SDS011;33547;49.044;1.156;2023-03-12T03:16:27;35.60;;;8.82;;
47790;SDS011;33547;49.044;1.156;2023-03-12T03:18:53;43.78;;;9.48;;
47790;SDS011;33547;49.044;1.156;2023-03-12T03:21:19;40.45;;;9.15;;
47790;SDS011;33547;49.044;1.156;2023-03-12T03:23:45;45.97;;;8.90;;
47790;SDS011;33547;49.044;1.156;2023-03-12T03:26:13;46.70;;;9.68;;
47790;SDS011;33547;49.044;1.156;2023-03-12T03:28:40;39.25;;;8.30;;
47790;SDS011;33547;49.044;1.156;2023-03-12T03:31:05;39.65;;;9.05;;
47790;SDS011;33547;49.044;1.156;2023-03-12T03:33:32;47.75;;;10.45;;
47790;SDS011;33547;49.044;1.156;2023-03-12T03:35:59;48.65;;;9.95;;
47790;SDS011;33547;49.044;1.156;2023-03-12T03:38:26;46.90;;;9.23;;
47790;SDS011;33547;49.044;1.156;2023-03-12T03:40:52;47.65;;;10.30;;
47790;SDS011;33547;49.044;1.156;2023-03-12T03:43:20;42.00;;;10.10;;
47790;SDS011;33547;49.044;1.156;2023-03-12T03:45:46;44.85;;;10.25;;
47790;SDS011;33547;49.044;1.156;2023-03-12T03:48:12;43.50;;;8.85;;
47790;SDS011;33547;49.044;1.156;2023-03-12T03:50:38;42.42;;;8.63;;
47790;SDS011;33547;49.044;1.156;2023-03-12T03:53:05;41.95;;;9.50;;
47790;SDS011;33547;49.044;1.156;2023-03-12T03:55:34;46.38;;;9.02;;
47790;SDS011;33547;49.044;1.156;2023-03-12T03:58:01;43.83;;;9.45;;
47790;SDS011;33547;49.044;1.156;2023-03-12T04:00:26;36.22;;;9.02;;
47790;SDS011;33547;49.044;1.156;2023-03-12T04:02:52;36.20;;;8.18;;
47790;SDS011;33547;49.044;1.156;2023-03-12T04:05:19;41.67;;;9.10;;
47790;SDS011;33547;49.044;1.156;2023-03-12T04:07:45;40.97;;;9.18;;
47790;SDS011;33547;49.044;1.156;2023-03-12T04:10:11;47.58;;;9.80;;
47790;SDS011;33547;49.044;1.156;2023-03-12T04:12:36;37.65;;;8.82;;
47790;SDS011;33547;49.044;1.156;2023-03-12T04:15:02;43.83;;;9.15;;
47790;SDS011;33547;49.044;1.156;2023-03-12T04:17:29;48.58;;;9.88;;
47790;SDS011;33547;49.044;1.156;2023-03-12T04:19:54;51.05;;;9.57;;
47790;SDS011;33547;49.044;1.156;2023-03-12T04:22:20;41.97;;;9.98;;
47790;SDS011;33547;49.044;1.156;2023-03-12T04:24:45;40.13;;;10.02;;
47790;SDS011;33547;49.044;1.156;2023-03-12T04:27:11;40.70;;;9.80;;
47790;SDS011;33547;49.044;1.156;2023-03-12T04:29:36;42.17;;;10.00;;
47790;SDS011;33547;49.044;1.156;2023-03-12T04:32:04;34.00;;;8.18;;
47790;SDS011;33547;49.044;1.156;2023-03-12T04:34:31;38.88;;;8.65;;
47790;SDS011;33547;49.044;1.156;2023-03-12T04:36:56;47.55;;;9.52;;
47790;SDS011;33547;49.044;1.156;2023-03-12T04:39:24;41.58;;;8.98;;
47790;SDS011;33547;49.044;1.156;2023-03-12T04:41:50;38.53;;;8.63;;
47790;SDS011;33547;49.044;1.156;2023-03-12T04:44:15;37.75;;;8.68;;
47790;SDS011;33547;49.044;1.156;2023-03-12T04:46:41;39.22;;;9.25;;
47790;SDS011;33547;49.044;1.156;2023-03-12T04:49:07;39.63;;;9.00;;
47790;SDS011;33547;49.044;1.156;2023-03-12T04:51:33;39.30;;;8.82;;
47790;SDS011;33547;49.044;1.156;2023-03-12T04:53:59;46.90;;;10.40;;
47790;SDS011;33547;49.044;1.156;2023-03-12T04:56:25;42.85;;;8.45;;
47790;SDS011;33547;49.044;1.156;2023-03-12T04:58:51;48.28;;;9.75;;
47790;SDS011;33547;49.044;1.156;2023-03-12T05:03:48;39.40;;;8.48;;
47790;SDS011;33547;49.044;1.156;2023-03-12T05:06:13;39.72;;;9.77;;
47790;SDS011;33547;49.044;1.156;2023-03-12T05:08:39;42.72;;;9.52;;
47790;SDS011;33547;49.044;1.156;2023-03-12T05:11:05;33.40;;;8.48;;
47790;SDS011;33547;49.044;1.156;2023-03-12T05:13:31;40.70;;;9.48;;
47790;SDS011;33547;49.044;1.156;2023-03-12T05:15:56;45.88;;;9.85;;
47790;SDS011;33547;49.044;1.156;2023-03-12T05:18:22;47.30;;;10.20;;
47790;SDS011;33547;49.044;1.156;2023-03-12T05:21:01;47.90;;;9.32;;
47790;SDS011;33547;49.044;1.156;2023-03-12T05:23:28;38.03;;;9.18;;
47790;SDS011;33547;49.044;1.156;2023-03-12T05:25:54;42.70;;;9.57;;
47790;SDS011;33547;49.044;1.156;2023-03-12T05:28:20;58.60;;;11.05;;
47790;SDS011;33547;49.044;1.156;2023-03-12T05:30:51;50.63;;;10.00;;
47790;SDS011;33547;49.044;1.156;2023-03-12T05:33:32;46.83;;;10.73;;
47790;SDS011;33547;49.044;1.156;2023-03-12T05:35:58;53.30;;;10.60;;
47790;SDS011;33547;49.044;1.156;2023-03-12T05:38:23;43.67;;;9.75;;
47790;SDS011;33547;49.044;1.156;2023-03-12T05:40:50;53.05;;;10.98;;
47790;SDS011;33547;49.044;1.156;2023-03-12T05:43:17;42.92;;;10.20;;
47790;SDS011;33547;49.044;1.156;2023-03-12T05:45:43;48.55;;;10.75;;
47790;SDS011;33547;49.044;1.156;2023-03-12T05:48:09;37.05;;;9.30;;
47790;SDS011;33547;49.044;1.156;2023-03-12T05:50:34;44.22;;;9.63;;
47790;SDS011;33547;49.044;1.156;2023-03-12T05:53:00;46.20;;;9.63;;
47790;SDS011;33547;49.044;1.156;2023-03-12T05:55:25;47.58;;;10.45;;
47790;SDS011;33547;49.044;1.156;2023-03-12T05:57:51;47.17;;;10.18;;
47790;SDS011;33547;49.044;1.156;2023-03-12T06:00:17;47.30;;;9.98;;
47790;SDS011;33547;49.044;1.156;2023-03-12T06:02:43;50.97;;;10.77;;
47790;SDS011;33547;49.044;1.156;2023-03-12T06:05:12;48.72;;;10.68;;
47790;SDS011;33547;49.044;1.156;2023-03-12T06:07:37;48.00;;;9.60;;
47790;SDS011;33547;49.044;1.156;2023-03-12T06:10:03;36.38;;;9.05;;
47790;SDS011;33547;49.044;1.156;2023-03-12T06:12:29;44.00;;;9.07;;
47790;SDS011;33547;49.044;1.156;2023-03-12T06:14:56;50.88;;;9.85;;
47790;SDS011;33547;49.044;1.156;2023-03-12T06:17:22;42.72;;;9.90;;
47790;SDS011;33547;49.044;1.156;2023-03-12T06:19:50;40.15;;;9.18;;
47790;SDS011;33547;49.044;1.156;2023-03-12T06:22:19;46.55;;;9.50;;
47790;SDS011;33547;49.044;1.156;2023-03-12T06:24:44;46.28;;;9.52;;
47790;SDS011;33547;49.044;1.156;2023-03-12T06:27:13;52.65;;;11.18;;
47790;SDS011;33547;49.044;1.156;2023-03-12T06:29:39;44.47;;;9.55;;
47790;SDS011;33547;49.044;1.156;2023-03-12T06:32:05;43.08;;;10.07;;
47790;SDS011;33547;49.044;1.156;2023-03-12T06:34:31;47.22;;;10.02;;
47790;SDS011;33547;49.044;1.156;2023-03-12T06:36:57;47.38;;;9.32;;
47790;SDS011;33547;49.044;1.156;2023-03-12T06:39:23;39.17;;;9.35;;
47790;SDS011;33547;49.044;1.156;2023-03-12T06:41:48;40.83;;;9.93;;
47790;SDS011;33547;49.044;1.156;2023-03-12T06:44:14;40.85;;;9.65;;
47790;SDS011;33547;49.044;1.156;2023-03-12T06:46:40;45.92;;;10.25;;
47790;SDS011;33547;49.044;1.156;2023-03-12T06:49:05;43.80;;;10.82;;
47790;SDS011;33547;49.044;1.156;2023-03-12T06:51:31;42.72;;;10.85;;
47790;SDS011;33547;49.044;1.156;2023-03-12T06:53:57;47.30;;;10.38;;
47790;SDS011;33547;49.044;1.156;2023-03-12T06:56:25;48.50;;;9.95;;
47790;SDS011;33547;49.044;1.156;2023-03-12T06:58:50;43.33;;;9.35;;
47790;SDS011;33547;49.044;1.156;2023-03-12T07:01:16;36.92;;;8.80;;
47790;SDS011;33547;49.044;1.156;2023-03-12T07:03:42;40.58;;;9.45;;
47790;SDS011;33547;49.044;1.156;2023-03-12T07:06:14;43.45;;;9.63;;
47790;SDS011;33547;49.044;1.156;2023-03-12T07:08:42;38.20;;;10.15;;
47790;SDS011;33547;49.044;1.156;2023-03-12T07:11:08;45.25;;;8.77;;
47790;SDS011;33547;49.044;1.156;2023-03-12T07:13:34;40.47;;;9.27;;
47790;SDS011;33547;49.044;1.156;2023-03-12T07:16:00;38.22;;;9.23;;
47790;SDS011;33547;49.044;1.156;2023-03-12T07:18:26;42.72;;;9.32;;
47790;SDS011;33547;49.044;1.156;2023-03-12T07:20:52;32.55;;;7.88;;
47790;SDS011;33547;49.044;1.156;2023-03-12T07:23:18;37.78;;;8.85;;
47790;SDS011;33547;49.044;1.156;2023-03-12T07:25:45;37.03;;;9.93;;
47790;SDS011;33547;49.044;1.156;2023-03-12T07:28:12;33.22;;;9.13;;
47790;SDS011;33547;49.044;1.156;2023-03-12T07:30:38;39.97;;;9.32;;
47790;SDS011;33547;49.044;1.156;2023-03-12T07:33:09;36.45;;;9.10;;
47790;SDS011;33547;49.044;1.156;2023-03-12T07:35:36;37.22;;;8.95;;
47790;SDS011;33547;49.044;1.156;2023-03-12T07:38:03;43.63;;;9.80;;
47790;SDS011;33547;49.044;1.156;2023-03-12T07:40:29;34.17;;;8.05;;
47790;SDS011;33547;49.044;1.156;2023-03-12T07:42:55;39.05;;;8.35;;
47790;SDS011;33547;49.044;1.156;2023-03-12T07:45:21;31.83;;;8.55;;
47790;SDS011;33547;49.044;1.156;2023-03-12T07:47:47;36.20;;;9.00;;
47790;SDS011;33547;49.044;1.156;2023-03-12T07:50:13;47.25;;;9.48;;
47790;SDS011;33547;49.044;1.156;2023-03-12T07:52:40;36.10;;;8.32;;
47790;SDS011;33547;49.044;1.156;2023-03-12T07:55:06;32.95;;;8.50;;
47790;SDS011;33547;49.044;1.156;2023-03-12T07:57:32;34.47;;;8.02;;
47790;SDS011;33547;49.044;1.156;2023-03-12T07:59:58;38.60;;;9.93;;
47790;SDS011;33547;49.044;1.156;2023-03-12T08:02:23;38.60;;;9.30;;
47790;SDS011;33547;49.044;1.156;2023-03-12T08:04:49;37.42;;;8.55;;
47790;SDS011;33547;49.044;1.156;2023-03-12T08:07:14;32.03;;;7.93;;
47790;SDS011;33547;49.044;1.156;2023-03-12T08:09:40;31.95;;;8.27;;
47790;SDS011;33547;49.044;1.156;2023-03-12T08:12:06;37.10;;;9.48;;
47790;SDS011;33547;49.044;1.156;2023-03-12T08:14:32;30.60;;;8.10;;
47790;SDS011;33547;49.044;1.156;2023-03-12T08:16:58;32.60;;;8.00;;
47790;SDS011;33547;49.044;1.156;2023-03-12T08:19:24;29.80;;;8.48;;
47790;SDS011;33547;49.044;1.156;2023-03-12T08:21:51;28.13;;;8.40;;
47790;SDS011;33547;49.044;1.156;2023-03-12T08:24:17;27.65;;;7.93;;
47790;SDS011;33547;49.044;1.156;2023-03-12T08:26:44;35.88;;;8.40;;
47790;SDS011;33547;49.044;1.156;2023-03-12T08:29:10;30.58;;;8.07;;
47790;SDS011;33547;49.044;1.156;2023-03-12T08:31:35;30.88;;;8.75;;
47790;SDS011;33547;49.044;1.156;2023-03-12T08:34:01;28.23;;;8.13;;
47790;SDS011;33547;49.044;1.156;2023-03-12T08:36:27;34.63;;;8.50;;
47790;SDS011;33547;49.044;1.156;2023-03-12T08:38:52;30.42;;;8.30;;
47790;SDS011;33547;49.044;1.156;2023-03-12T08:41:18;37.42;;;8.45;;
47790;SDS011;33547;49.044;1.156;2023-03-12T08:43:43;32.63;;;7.80;;
47790;SDS011;33547;49.044;1.156;2023-03-12T08:46:09;29.80;;;8.48;;
47790;SDS011;33547;49.044;1.156;2023-03-12T08:48:35;33.15;;;7.47;;
47790;SDS011;33547;49.044;1.156;2023-03-12T08:51:01;34.40;;;8.07;;
47790;SDS011;33547;49.044;1.156;2023-03-12T08:53:28;35.45;;;8.35;;
47790;SDS011;33547;49.044;1.156;2023-03-12T08:55:55;30.50;;;8.57;;
47790;SDS011;33547;49.044;1.156;2023-03-12T08:58:21;35.50;;;8.48;;
47790;SDS011;33547;49.044;1.156;2023-03-12T09:00:48;37.58;;;8.10;;
47790;SDS011;33547;49.044;1.156;2023-03-12T09:03:15;30.60;;;7.90;;
47790;SDS011;33547;49.044;1.156;2023-03-12T09:05:41;33.33;;;8.25;;
47790;SDS011;33547;49.044;1.156;2023-03-12T09:08:08;32.15;;;8.15;;
47790;SDS011;33547;49.044;1.156;2023-03-12T09:10:35;32.75;;;7.93;;
47790;SDS011;33547;49.044;1.156;2023-03-12T09:13:01;28.75;;;8.02;;
47790;SDS011;33547;49.044;1.156;2023-03-12T09:15:27;27.67;;;7.47;;
47790;SDS011;33547;49.044;1.156;2023-03-12T09:17:53;31.60;;;8.63;;
47790;SDS011;33547;49.044;1.156;2023-03-12T09:20:20;37.20;;;9.20;;
47790;SDS011;33547;49.044;1.156;2023-03-12T09:22:46;33.58;;;8.10;;
47790;SDS011;33547;49.044;1.156;2023-03-12T09:25:12;28.30;;;7.75;;
47790;SDS011;33547;49.044;1.156;2023-03-12T09:27:39;30.63;;;8.45;;
47790;SDS011;33547;49.044;1.156;2023-03-12T09:30:06;31.17;;;8.48;;
47790;SDS011;33547;49.044;1.156;2023-03-12T09:32:34;23.80;;;7.45;;
47790;SDS011;33547;49.044;1.156;2023-03-12T09:35:00;31.88;;;8.05;;
47790;SDS011;33547;49.044;1.156;2023-03-12T09:37:26;25.15;;;7.38;;
47790;SDS011;33547;49.044;1.156;2023-03-12T09:39:52;31.40;;;7.65;;
47790;SDS011;33547;49.044;1.156;2023-03-12T09:42:24;34.47;;;9.05;;
47790;SDS011;33547;49.044;1.156;2023-03-12T09:44:59;34.50;;;8.05;;
47790;SDS011;33547;49.044;1.156;2023-03-12T09:47:30;29.15;;;8.20;;
47790;SDS011;33547;49.044;1.156;2023-03-12T09:50:07;30.25;;;7.95;;
47790;SDS011;33547;49.044;1.156;2023-03-12T09:52:50;36.75;;;8.60;;
47790;SDS011;33547;49.044;1.156;2023-03-12T09:55:22;31.20;;;7.75;;
47790;SDS011;33547;49.044;1.156;2023-03-12T09:57:49;33.92;;;7.97;;
47790;SDS011;33547;49.044;1.156;2023-03-12T10:00:23;37.88;;;8.77;;
47790;SDS011;33547;49.044;1.156;2023-03-12T10:07:49;28.20;;;7.55;;
47790;SDS011;33547;49.044;1.156;2023-03-12T10:11:11;29.13;;;7.90;;
47790;SDS011;33547;49.044;1.156;2023-03-12T10:27:06;26.42;;;6.47;;
47790;SDS011;33547;49.044;1.156;2023-03-12T10:29:40;34.42;;;6.55;;
47790;SDS011;33547;49.044;1.156;2023-03-12T10:32:21;24.75;;;6.43;;
47790;SDS011;33547;49.044;1.156;2023-03-12T10:35:29;23.35;;;6.78;;
47790;SDS011;33547;49.044;1.156;2023-03-12T10:38:00;25.05;;;6.60;;
47790;SDS011;33547;49.044;1.156;2023-03-12T11:05:28;20.02;;;5.25;;
47790;SDS011;33547;49.044;1.156;2023-03-12T11:07:59;24.40;;;6.47;;
47790;SDS011;33547;49.044;1.156;2023-03-12T11:13:19;23.95;;;5.78;;
47790;SDS011;33547;49.044;1.156;2023-03-12T11:15:55;21.42;;;5.63;;
47790;SDS011;33547;49.044;1.156;2023-03-12T11:18:24;20.48;;;5.88;;
47790;SDS011;33547;49.044;1.156;2023-03-12T11:20:51;24.80;;;7.32;;
47790;SDS011;33547;49.044;1.156;2023-03-12T11:23:24;20.15;;;5.72;;
47790;SDS011;33547;49.044;1.156;2023-03-12T11:25:53;22.67;;;5.85;;
47790;SDS011;33547;49.044;1.156;2023-03-12T11:28:22;18.67;;;5.60;;
47790;SDS011;33547;49.044;1.156;2023-03-12T11:30:52;20.13;;;5.90;;
47790;SDS011;33547;49.044;1.156;2023-03-12T11:33:22;14.55;;;5.10;;
47790;SDS011;33547;49.044;1.156;2023-03-12T11:36:00;13.82;;;5.28;;
47790;SDS011;33547;49.044;1.156;2023-03-12T11:38:38;17.70;;;4.78;;
47790;SDS011;33547;49.044;1.156;2023-03-12T11:41:11;17.63;;;5.45;;
47790;SDS011;33547;49.044;1.156;2023-03-12T11:52:24;20.63;;;5.70;;
47790;SDS011;33547;49.044;1.156;2023-03-12T11:55:30;18.85;;;5.60;;
47790;SDS011;33547;49.044;1.156;2023-03-12T12:00:53;18.42;;;5.45;;
47790;SDS011;33547;49.044;1.156;2023-03-12T12:09:23;19.10;;;5.97;;
47790;SDS011;33547;49.044;1.156;2023-03-12T12:20:11;18.20;;;4.78;;
47790;SDS011;33547;49.044;1.156;2023-03-12T12:25:45;21.48;;;5.22;;
47790;SDS011;33547;49.044;1.156;2023-03-12T12:31:23;17.02;;;5.45;;
47790;SDS011;33547;49.044;1.156;2023-03-12T12:36:33;16.15;;;5.30;;
47790;SDS011;33547;49.044;1.156;2023-03-12T12:39:08;20.42;;;5.35;;
47790;SDS011;33547;49.044;1.156;2023-03-12T12:41:43;18.63;;;5.57;;
47790;SDS011;33547;49.044;1.156;2023-03-12T12:44:14;21.05;;;5.32;;
47790;SDS011;33547;49.044;1.156;2023-03-12T12:46:46;21.08;;;5.15;;
47790;SDS011;33547;49.044;1.156;2023-03-12T12:52:00;26.15;;;6.13;;
47790;SDS011;33547;49.044;1.156;2023-03-12T12:54:32;19.80;;;5.40;;
47790;SDS011;33547;49.044;1.156;2023-03-12T12:57:10;19.75;;;4.70;;
47790;SDS011;33547;49.044;1.156;2023-03-12T13:02:37;18.65;;;5.18;;
47790;SDS011;33547;49.044;1.156;2023-03-12T13:07:46;20.33;;;5.18;;
47790;SDS011;33547;49.044;1.156;2023-03-12T13:13:20;21.20;;;5.35;;
47790;SDS011;33547;49.044;1.156;2023-03-12T13:15:45;16.55;;;4.88;;
47790;SDS011;33547;49.044;1.156;2023-03-12T13:18:22;16.83;;;5.10;;
47790;SDS011;33547;49.044;1.156;2023-03-12T13:26:06;14.52;;;4.25;;
47790;SDS011;33547;49.044;1.156;2023-03-12T13:33:49;20.90;;;5.55;;
47790;SDS011;33547;49.044;1.156;2023-03-12T13:52:46;17.25;;;4.63;;
47790;SDS011;33547;49.044;1.156;2023-03-12T13:55:28;16.88;;;5.43;;
47790;SDS011;33547;49.044;1.156;2023-03-12T13:58:12;22.45;;;6.13;;
47790;SDS011;33547;49.044;1.156;2023-03-12T14:03:22;19.42;;;5.45;;
47790;SDS011;33547;49.044;1.156;2023-03-12T14:05:59;15.63;;;5.10;;
47790;SDS011;33547;49.044;1.156;2023-03-12T14:16:51;15.43;;;4.78;;
47790;SDS011;33547;49.044;1.156;2023-03-12T14:19:22;20.15;;;4.55;;
47790;SDS011;33547;49.044;1.156;2023-03-12T14:21:50;14.98;;;4.35;;
47790;SDS011;33547;49.044;1.156;2023-03-12T14:26:57;13.32;;;4.07;;
47790;SDS011;33547;49.044;1.156;2023-03-12T14:29:26;16.77;;;4.95;;
47790;SDS011;33547;49.044;1.156;2023-03-12T14:32:01;14.52;;;4.70;;
47790;SDS011;33547;49.044;1.156;2023-03-12T14:34:30;14.60;;;5.15;;
47790;SDS011;33547;49.044;1.156;2023-03-12T14:37:06;13.15;;;4.28;;
47790;SDS011;33547;49.044;1.156;2023-03-12T14:39:40;15.45;;;4.38;;
47790;SDS011;33547;49.044;1.156;2023-03-12T14:42:22;15.55;;;4.70;;
47790;SDS011;33547;49.044;1.156;2023-03-12T14:47:24;15.77;;;3.95;;
47790;SDS011;33547;49.044;1.156;2023-03-12T14:49:50;14.00;;;3.92;;
47790;SDS011;33547;49.044;1.156;2023-03-12T14:52:26;13.68;;;4.25;;
47790;SDS011;33547;49.044;1.156;2023-03-12T14:54:57;15.68;;;4.30;;
47790;SDS011;33547;49.044;1.156;2023-03-12T14:57:36;12.98;;;4.30;;
47790;SDS011;33547;49.044;1.156;2023-03-12T15:00:02;15.48;;;4.10;;
47790;SDS011;33547;49.044;1.156;2023-03-12T15:02:29;21.27;;;4.82;;
47790;SDS011;33547;49.044;1.156;2023-03-12T15:04:56;18.15;;;4.47;;
47790;SDS011;33547;49.044;1.156;2023-03-12T15:07:27;21.30;;;5.25;;
47790;SDS011;33547;49.044;1.156;2023-03-12T15:10:04;15.65;;;4.60;;
47790;SDS011;33547;49.044;1.156;2023-03-12T15:12:40;17.98;;;4.63;;
47790;SDS011;33547;49.044;1.156;2023-03-12T15:15:15;18.50;;;5.38;;
47790;SDS011;33547;49.044;1.156;2023-03-12T15:18:03;20.98;;;5.35;;
47790;SDS011;33547;49.044;1.156;2023-03-12T15:20:31;18.52;;;4.88;;
47790;SDS011;33547;49.044;1.156;2023-03-12T15:22:57;22.58;;;5.35;;
47790;SDS011;33547;49.044;1.156;2023-03-12T15:25:29;16.90;;;4.82;;
47790;SDS011;33547;49.044;1.156;2023-03-12T15:28:21;17.83;;;5.13;;
47790;SDS011;33547;49.044;1.156;2023-03-12T15:31:06;18.00;;;5.00;;
47790;SDS011;33547;49.044;1.156;2023-03-12T15:33:35;19.92;;;6.07;;
47790;SDS011;33547;49.044;1.156;2023-03-12T15:36:04;19.35;;;5.65;;
47790;SDS011;33547;49.044;1.156;2023-03-12T15:38:36;25.05;;;6.53;;
47790;SDS011;33547;49.044;1.156;2023-03-12T15:41:07;21.83;;;5.53;;
47790;SDS011;33547;49.044;1.156;2023-03-12T15:43:33;22.50;;;5.90;;
47790;SDS011;33547;49.044;1.156;2023-03-12T15:46:02;20.92;;;6.13;;
47790;SDS011;33547;49.044;1.156;2023-03-12T15:48:30;25.55;;;6.32;;
47790;SDS011;33547;49.044;1.156;2023-03-12T15:51:01;17.75;;;5.25;;
47790;SDS011;33547;49.044;1.156;2023-03-12T15:53:35;23.73;;;5.63;;
47790;SDS011;33547;49.044;1.156;2023-03-12T15:56:03;19.95;;;6.15;;
47790;SDS011;33547;49.044;1.156;2023-03-12T15:58:36;22.98;;;5.75;;
47790;SDS011;33547;49.044;1.156;2023-03-12T16:01:15;27.92;;;6.53;;
47790;SDS011;33547;49.044;1.156;2023-03-12T16:03:42;19.52;;;5.88;;
47790;SDS011;33547;49.044;1.156;2023-03-12T16:06:18;17.63;;;5.82;;
47790;SDS011;33547;49.044;1.156;2023-03-12T16:08:50;24.63;;;6.38;;
47790;SDS011;33547;49.044;1.156;2023-03-12T16:11:21;23.38;;;5.65;;
47790;SDS011;33547;49.044;1.156;2023-03-12T16:13:49;19.55;;;5.13;;
47790;SDS011;33547;49.044;1.156;2023-03-12T16:16:19;30.00;;;6.38;;
47790;SDS011;33547;49.044;1.156;2023-03-12T16:18:44;24.20;;;6.13;;
47790;SDS011;33547;49.044;1.156;2023-03-12T16:21:10;21.17;;;5.68;;
47790;SDS011;33547;49.044;1.156;2023-03-12T16:23:36;24.17;;;6.63;;
47790;SDS011;33547;49.044;1.156;2023-03-12T16:26:02;19.95;;;5.70;;
47790;SDS011;33547;49.044;1.156;2023-03-12T16:28:29;23.27;;;5.75;;
47790;SDS011;33547;49.044;1.156;2023-03-12T16:30:55;22.88;;;6.05;;
47790;SDS011;33547;49.044;1.156;2023-03-12T16:33:22;20.60;;;5.50;;
47790;SDS011;33547;49.044;1.156;2023-03-12T16:35:48;24.08;;;6.18;;
47790;SDS011;33547;49.044;1.156;2023-03-12T16:38:14;23.27;;;6.50;;
47790;SDS011;33547;49.044;1.156;2023-03-12T16:40:45;24.58;;;6.20;;
47790;SDS011;33547;49.044;1.156;2023-03-12T16:43:14;26.75;;;6.43;;
47790;SDS011;33547;49.044;1.156;2023-03-12T16:45:46;24.17;;;6.68;;
47790;SDS011;33547;49.044;1.156;2023-03-12T16:48:13;27.27;;;6.70;;
47790;SDS011;33547;49.044;1.156;2023-03-12T16:50:49;26.38;;;5.93;;
47790;SDS011;33547;49.044;1.156;2023-03-12T16:53:16;24.08;;;6.50;;
47790;SDS011;33547;49.044;1.156;2023-03-12T16:55:44;24.10;;;6.57;;
47790;SDS011;33547;49.044;1.156;2023-03-12T16:58:15;22.15;;;6.40;;
47790;SDS011;33547;49.044;1.156;2023-03-12T17:00:43;21.60;;;6.78;;
47790;SDS011;33547;49.044;1.156;2023-03-12T17:03:12;21.85;;;6.65;;
47790;SDS011;33547;49.044;1.156;2023-03-12T17:05:51;24.98;;;6.43;;
47790;SDS011;33547;49.044;1.156;2023-03-12T17:08:18;20.20;;;5.65;;